sensor_id;sensor_type;location;lat;lon;timestamp;temperature;humidity
30534;DHT22;73248;52.398;9.814;2024-02-15T00:01:41;12.30;99.90
30534;DHT22;73248;52.398;9.814;2024-02-15T00:04:07;12.30;99.90
30534;DHT22;73248;52.398;9.814;2024-02-15T00:06:33;12.30;99.90
30534;DHT22;73248;52.398;9.814;2024-02-15T00:08:58;12.30;99.90
30534;DHT22;73248;52.398;9.814;2024-02-15T00:11:24;12.30;99.90
30534;DHT22;73248;52.398;9.814;2024-02-15T00:13:49;12.30;99.90
30534;DHT22;73248;52.398;9.814;2024-02-15T00:16:15;12.40;99.90
30534;DHT22;73248;52.398;9.814;2024-02-15T00:18:41;12.40;99.90
30534;DHT22;73248;52.398;9.814;2024-02-15T00:21:06;12.40;99.90
30534;DHT22;73248;52.398;9.814;2024-02-15T00:23:32;12.40;99.90
30534;DHT22;73248;52.398;9.814;2024-02-15T00:25:58;12.40;99.90
30534;DHT22;73248;52.398;9.814;2024-02-15T00:28:24;12.40;99.90
30534;DHT22;73248;52.398;9.814;2024-02-15T00:30:52;12.50;99.90
30534;DHT22;73248;52.398;9.814;2024-02-15T00:33:17;12.40;99.90
30534;DHT22;73248;52.398;9.814;2024-02-15T00:35:43;12.50;99.90
30534;DHT22;73248;52.398;9.814;2024-02-15T00:38:08;12.50;99.90
30534;DHT22;73248;52.398;9.814;2024-02-15T00:40:34;12.50;99.90
30534;DHT22;73248;52.398;9.814;2024-02-15T00:43:00;12.50;99.90
30534;DHT22;73248;52.398;9.814;2024-02-15T00:45:25;12.50;99.90
30534;DHT22;73248;52.398;9.814;2024-02-15T00:47:51;12.50;99.90
30534;DHT22;73248;52.398;9.814;2024-02-15T00:50:17;12.60;99.90
30534;DHT22;73248;52.398;9.814;2024-02-15T00:52:42;12.50;99.90
30534;DHT22;73248;52.398;9.814;2024-02-15T00:55:08;12.60;99.90
30534;DHT22;73248;52.398;9.814;2024-02-15T00:57:34;12.60;99.90
30534;DHT22;73248;52.398;9.814;2024-02-15T00:59:59;12.60;99.90
30534;DHT22;73248;52.398;9.814;2024-02-15T01:02:25;12.60;99.90
30534;DHT22;73248;52.398;9.814;2024-02-15T01:04:51;12.60;99.90
30534;DHT22;73248;52.398;9.814;2024-02-15T01:07:18;12.60;99.90
30534;DHT22;73248;52.398;9.814;2024-02-15T01:09:44;12.60;99.90
30534;DHT22;73248;52.398;9.814;2024-02-15T01:12:10;12.60;99.90
30534;DHT22;73248;52.398;9.814;2024-02-15T01:14:37;12.60;99.90
30534;DHT22;73248;52.398;9.814;2024-02-15T01:17:02;12.60;99.90
30534;DHT22;73248;52.398;9.814;2024-02-15T01:19:28;12.60;99.90
30534;DHT22;73248;52.398;9.814;2024-02-15T01:21:53;12.60;99.90
30534;DHT22;73248;52.398;9.814;2024-02-15T01:24:19;12.60;99.90
30534;DHT22;73248;52.398;9.814;2024-02-15T01:26:45;12.60;99.90
30534;DHT22;73248;52.398;9.814;2024-02-15T01:29:13;12.60;99.90
30534;DHT22;73248;52.398;9.814;2024-02-15T01:31:38;12.60;99.90
30534;DHT22;73248;52.398;9.814;2024-02-15T01:34:04;12.60;99.90
30534;DHT22;73248;52.398;9.814;2024-02-15T01:36:30;12.60;99.90
30534;DHT22;73248;52.398;9.814;2024-02-15T01:38:56;12.60;99.90
30534;DHT22;73248;52.398;9.814;2024-02-15T01:41:21;12.60;99.90
30534;DHT22;73248;52.398;9.814;2024-02-15T01:43:47;12.60;99.90
30534;DHT22;73248;52.398;9.814;2024-02-15T01:46:15;12.60;99.90
30534;DHT22;73248;52.398;9.814;2024-02-15T01:48:42;12.60;99.90
30534;DHT22;73248;52.398;9.814;2024-02-15T01:51:10;12.60;99.90
30534;DHT22;73248;52.398;9.814;2024-02-15T01:53:36;12.60;99.90
30534;DHT22;73248;52.398;9.814;2024-02-15T01:56:03;12.60;99.90
30534;DHT22;73248;52.398;9.814;2024-02-15T01:58:29;12.60;99.90
30534;DHT22;73248;52.398;9.814;2024-02-15T02:00:57;12.60;99.90
30534;DHT22;73248;52.398;9.814;2024-02-15T02:03:24;12.60;99.90
30534;DHT22;73248;52.398;9.814;2024-02-15T02:05:49;12.60;99.90
30534;DHT22;73248;52.398;9.814;2024-02-15T02:08:15;12.60;99.90
30534;DHT22;73248;52.398;9.814;2024-02-15T02:10:40;12.60;99.90
30534;DHT22;73248;52.398;9.814;2024-02-15T02:13:06;12.60;99.90
30534;DHT22;73248;52.398;9.814;2024-02-15T02:15:32;12.60;99.90
30534;DHT22;73248;52.398;9.814;2024-02-15T02:18:01;12.60;99.90
30534;DHT22;73248;52.398;9.814;2024-02-15T02:20:27;12.60;99.90
30534;DHT22;73248;52.398;9.814;2024-02-15T02:23:11;12.60;99.90
30534;DHT22;73248;52.398;9.814;2024-02-15T02:25:38;12.60;99.90
30534;DHT22;73248;52.398;9.814;2024-02-15T02:28:06;12.60;99.90
30534;DHT22;73248;52.398;9.814;2024-02-15T02:30:32;12.60;99.90
30534;DHT22;73248;52.398;9.814;2024-02-15T02:32:58;12.60;99.90
30534;DHT22;73248;52.398;9.814;2024-02-15T02:35:24;12.60;99.90
30534;DHT22;73248;52.398;9.814;2024-02-15T02:37:51;12.60;99.90
30534;DHT22;73248;52.398;9.814;2024-02-15T02:40:18;12.60;99.90
30534;DHT22;73248;52.398;9.814;2024-02-15T02:42:52;12.60;99.90
30534;DHT22;73248;52.398;9.814;2024-02-15T02:45:19;12.60;99.90
30534;DHT22;73248;52.398;9.814;2024-02-15T02:47:46;12.60;99.90
30534;DHT22;73248;52.398;9.814;2024-02-15T02:50:12;12.60;99.90
30534;DHT22;73248;52.398;9.814;2024-02-15T02:52:39;12.60;99.90
30534;DHT22;73248;52.398;9.814;2024-02-15T02:55:05;12.60;99.90
30534;DHT22;73248;52.398;9.814;2024-02-15T02:57:34;12.60;99.90
30534;DHT22;73248;52.398;9.814;2024-02-15T03:00:02;12.60;99.90
30534;DHT22;73248;52.398;9.814;2024-02-15T03:02:36;12.60;99.90
30534;DHT22;73248;52.398;9.814;2024-02-15T03:05:05;12.60;99.90
30534;DHT22;73248;52.398;9.814;2024-02-15T03:07:38;12.60;99.90
30534;DHT22;73248;52.398;9.814;2024-02-15T03:10:06;12.60;99.90
30534;DHT22;73248;52.398;9.814;2024-02-15T03:12:34;12.60;99.90
30534;DHT22;73248;52.398;9.814;2024-02-15T03:15:03;12.60;99.90
30534;DHT22;73248;52.398;9.814;2024-02-15T03:17:29;12.60;99.90
30534;DHT22;73248;52.398;9.814;2024-02-15T03:19:57;12.60;99.90
30534;DHT22;73248;52.398;9.814;2024-02-15T03:22:23;12.60;99.90
30534;DHT22;73248;52.398;9.814;2024-02-15T03:24:50;12.70;99.90
30534;DHT22;73248;52.398;9.814;2024-02-15T03:27:16;12.60;99.90
30534;DHT22;73248;52.398;9.814;2024-02-15T03:29:41;12.60;99.90
30534;DHT22;73248;52.398;9.814;2024-02-15T03:32:08;12.60;99.90
30534;DHT22;73248;52.398;9.814;2024-02-15T03:34:36;12.70;99.90
30534;DHT22;73248;52.398;9.814;2024-02-15T03:37:02;12.70;99.90
30534;DHT22;73248;52.398;9.814;2024-02-15T03:39:29;12.70;99.90
30534;DHT22;73248;52.398;9.814;2024-02-15T03:41:56;12.60;99.90
30534;DHT22;73248;52.398;9.814;2024-02-15T03:44:23;12.70;99.90
30534;DHT22;73248;52.398;9.814;2024-02-15T03:46:51;12.70;99.90
30534;DHT22;73248;52.398;9.814;2024-02-15T03:49:18;12.70;99.90
30534;DHT22;73248;52.398;9.814;2024-02-15T03:51:44;12.70;99.90
30534;DHT22;73248;52.398;9.814;2024-02-15T03:54:13;12.80;99.90
30534;DHT22;73248;52.398;9.814;2024-02-15T03:56:49;12.70;99.90
30534;DHT22;73248;52.398;9.814;2024-02-15T03:59:22;12.70;99.90
30534;DHT22;73248;52.398;9.814;2024-02-15T04:01:55;12.70;99.90
30534;DHT22;73248;52.398;9.814;2024-02-15T04:04:21;12.70;99.90
30534;DHT22;73248;52.398;9.814;2024-02-15T04:06:48;12.70;99.90
30534;DHT22;73248;52.398;9.814;2024-02-15T04:09:14;12.70;99.90
30534;DHT22;73248;52.398;9.814;2024-02-15T04:11:40;12.70;99.90
30534;DHT22;73248;52.398;9.814;2024-02-15T04:14:05;12.70;99.90
30534;DHT22;73248;52.398;9.814;2024-02-15T04:16:31;12.70;99.90
30534;DHT22;73248;52.398;9.814;2024-02-15T04:18:59;12.70;99.90
30534;DHT22;73248;52.398;9.814;2024-02-15T04:21:25;12.70;99.90
30534;DHT22;73248;52.398;9.814;2024-02-15T04:23:52;12.70;99.90
30534;DHT22;73248;52.398;9.814;2024-02-15T04:26:18;12.70;99.90
30534;DHT22;73248;52.398;9.814;2024-02-15T04:28:45;12.70;99.90
30534;DHT22;73248;52.398;9.814;2024-02-15T04:31:13;12.70;99.90
30534;DHT22;73248;52.398;9.814;2024-02-15T04:33:40;12.70;99.90
30534;DHT22;73248;52.398;9.814;2024-02-15T04:36:06;12.80;99.90
30534;DHT22;73248;52.398;9.814;2024-02-15T04:38:35;12.70;99.90
30534;DHT22;73248;52.398;9.814;2024-02-15T04:41:01;12.80;99.90
30534;DHT22;73248;52.398;9.814;2024-02-15T04:43:28;12.70;99.90
30534;DHT22;73248;52.398;9.814;2024-02-15T04:45:54;12.70;99.90
30534;DHT22;73248;52.398;9.814;2024-02-15T04:48:20;12.80;99.90
30534;DHT22;73248;52.398;9.814;2024-02-15T04:50:45;12.70;99.90
30534;DHT22;73248;52.398;9.814;2024-02-15T04:53:11;12.70;99.90
30534;DHT22;73248;52.398;9.814;2024-02-15T04:55:36;12.80;99.90
30534;DHT22;73248;52.398;9.814;2024-02-15T04:58:02;12.80;99.90
30534;DHT22;73248;52.398;9.814;2024-02-15T05:00:29;12.80;99.90
30534;DHT22;73248;52.398;9.814;2024-02-15T05:02:55;12.80;99.90
30534;DHT22;73248;52.398;9.814;2024-02-15T05:05:21;12.80;99.90
30534;DHT22;73248;52.398;9.814;2024-02-15T05:07:47;12.80;99.90
30534;DHT22;73248;52.398;9.814;2024-02-15T05:10:14;12.80;99.90
30534;DHT22;73248;52.398;9.814;2024-02-15T05:12:41;12.80;99.90
30534;DHT22;73248;52.398;9.814;2024-02-15T05:15:09;12.80;99.90
30534;DHT22;73248;52.398;9.814;2024-02-15T05:17:39;12.80;99.90
30534;DHT22;73248;52.398;9.814;2024-02-15T05:20:11;12.80;99.90
30534;DHT22;73248;52.398;9.814;2024-02-15T05:22:39;12.80;99.90
30534;DHT22;73248;52.398;9.814;2024-02-15T05:25:06;12.80;99.90
30534;DHT22;73248;52.398;9.814;2024-02-15T05:27:33;12.80;99.90
30534;DHT22;73248;52.398;9.814;2024-02-15T05:29:59;12.80;99.90
30534;DHT22;73248;52.398;9.814;2024-02-15T05:32:24;12.80;99.90
30534;DHT22;73248;52.398;9.814;2024-02-15T05:34:51;12.70;99.90
30534;DHT22;73248;52.398;9.814;2024-02-15T05:37:20;12.80;99.90
30534;DHT22;73248;52.398;9.814;2024-02-15T05:39:46;12.80;99.90
30534;DHT22;73248;52.398;9.814;2024-02-15T05:42:11;12.80;99.90
30534;DHT22;73248;52.398;9.814;2024-02-15T05:44:37;12.80;99.90
30534;DHT22;73248;52.398;9.814;2024-02-15T05:47:03;12.80;99.90
30534;DHT22;73248;52.398;9.814;2024-02-15T05:49:29;12.80;99.90
30534;DHT22;73248;52.398;9.814;2024-02-15T05:51:55;12.80;99.90
30534;DHT22;73248;52.398;9.814;2024-02-15T05:54:20;12.80;99.90
30534;DHT22;73248;52.398;9.814;2024-02-15T05:56:48;12.80;99.90
30534;DHT22;73248;52.398;9.814;2024-02-15T05:59:17;12.80;99.90
30534;DHT22;73248;52.398;9.814;2024-02-15T06:01:45;12.80;99.90
30534;DHT22;73248;52.398;9.814;2024-02-15T06:04:14;12.80;99.90
30534;DHT22;73248;52.398;9.814;2024-02-15T06:06:39;12.80;99.90
30534;DHT22;73248;52.398;9.814;2024-02-15T06:09:05;12.90;99.90
30534;DHT22;73248;52.398;9.814;2024-02-15T06:11:31;12.80;99.90
30534;DHT22;73248;52.398;9.814;2024-02-15T06:13:57;12.80;99.90
30534;DHT22;73248;52.398;9.814;2024-02-15T06:16:23;12.90;99.90
30534;DHT22;73248;52.398;9.814;2024-02-15T06:18:49;12.80;99.90
30534;DHT22;73248;52.398;9.814;2024-02-15T06:21:14;12.80;99.90
30534;DHT22;73248;52.398;9.814;2024-02-15T06:23:40;12.80;99.90
30534;DHT22;73248;52.398;9.814;2024-02-15T06:26:06;12.80;99.90
30534;DHT22;73248;52.398;9.814;2024-02-15T06:28:31;12.80;99.90
30534;DHT22;73248;52.398;9.814;2024-02-15T06:31:15;12.80;99.90
30534;DHT22;73248;52.398;9.814;2024-02-15T06:34:00;12.80;99.90
30534;DHT22;73248;52.398;9.814;2024-02-15T06:39:32;12.80;99.90
30534;DHT22;73248;52.398;9.814;2024-02-15T06:42:10;12.80;99.90
30534;DHT22;73248;52.398;9.814;2024-02-15T06:44:37;12.80;99.90
30534;DHT22;73248;52.398;9.814;2024-02-15T06:47:05;12.80;99.90
30534;DHT22;73248;52.398;9.814;2024-02-15T06:49:32;12.80;99.90
30534;DHT22;73248;52.398;9.814;2024-02-15T06:51:58;12.90;99.90
30534;DHT22;73248;52.398;9.814;2024-02-15T06:54:27;12.90;99.90
30534;DHT22;73248;52.398;9.814;2024-02-15T06:56:53;12.90;99.90
30534;DHT22;73248;52.398;9.814;2024-02-15T06:59:20;12.90;99.90
30534;DHT22;73248;52.398;9.814;2024-02-15T07:01:49;12.90;99.90
30534;DHT22;73248;52.398;9.814;2024-02-15T07:04:14;12.90;99.90
30534;DHT22;73248;52.398;9.814;2024-02-15T07:06:40;12.90;99.90
30534;DHT22;73248;52.398;9.814;2024-02-15T07:09:06;12.90;99.90
30534;DHT22;73248;52.398;9.814;2024-02-15T07:11:35;12.90;99.90
30534;DHT22;73248;52.398;9.814;2024-02-15T07:14:01;12.90;99.90
30534;DHT22;73248;52.398;9.814;2024-02-15T07:16:27;12.90;99.90
30534;DHT22;73248;52.398;9.814;2024-02-15T07:18:52;12.90;99.90
30534;DHT22;73248;52.398;9.814;2024-02-15T07:21:20;12.90;99.90
30534;DHT22;73248;52.398;9.814;2024-02-15T07:23:51;12.90;99.90
30534;DHT22;73248;52.398;9.814;2024-02-15T07:26:17;12.90;99.90
30534;DHT22;73248;52.398;9.814;2024-02-15T07:28:45;12.90;99.90
30534;DHT22;73248;52.398;9.814;2024-02-15T07:31:11;12.90;99.90
30534;DHT22;73248;52.398;9.814;2024-02-15T07:33:37;12.90;99.90
30534;DHT22;73248;52.398;9.814;2024-02-15T07:36:04;12.90;99.90
30534;DHT22;73248;52.398;9.814;2024-02-15T07:38:30;12.90;99.90
30534;DHT22;73248;52.398;9.814;2024-02-15T07:40:59;12.90;99.90
30534;DHT22;73248;52.398;9.814;2024-02-15T07:43:25;12.90;99.90
30534;DHT22;73248;52.398;9.814;2024-02-15T07:45:52;13.00;99.90
30534;DHT22;73248;52.398;9.814;2024-02-15T07:48:17;12.90;99.90
30534;DHT22;73248;52.398;9.814;2024-02-15T07:50:43;12.90;99.90
30534;DHT22;73248;52.398;9.814;2024-02-15T07:53:10;12.90;99.90
30534;DHT22;73248;52.398;9.814;2024-02-15T07:55:37;12.90;99.90
30534;DHT22;73248;52.398;9.814;2024-02-15T07:58:03;12.90;99.90
30534;DHT22;73248;52.398;9.814;2024-02-15T08:00:30;13.00;99.90
30534;DHT22;73248;52.398;9.814;2024-02-15T08:02:56;13.00;99.90
30534;DHT22;73248;52.398;9.814;2024-02-15T08:05:23;13.00;99.90
30534;DHT22;73248;52.398;9.814;2024-02-15T08:07:48;13.00;99.90
30534;DHT22;73248;52.398;9.814;2024-02-15T08:10:15;13.00;99.90
30534;DHT22;73248;52.398;9.814;2024-02-15T08:12:45;13.00;99.90
30534;DHT22;73248;52.398;9.814;2024-02-15T08:15:11;13.00;99.90
30534;DHT22;73248;52.398;9.814;2024-02-15T08:17:46;13.10;99.90
30534;DHT22;73248;52.398;9.814;2024-02-15T08:20:12;13.10;99.90
30534;DHT22;73248;52.398;9.814;2024-02-15T08:22:39;13.10;99.90
30534;DHT22;73248;52.398;9.814;2024-02-15T08:25:12;13.10;99.90
30534;DHT22;73248;52.398;9.814;2024-02-15T08:27:39;13.10;99.90
30534;DHT22;73248;52.398;9.814;2024-02-15T08:30:11;13.10;99.90
30534;DHT22;73248;52.398;9.814;2024-02-15T08:32:38;13.10;99.90
30534;DHT22;73248;52.398;9.814;2024-02-15T08:35:05;13.10;99.90
30534;DHT22;73248;52.398;9.814;2024-02-15T08:37:32;13.10;99.90
30534;DHT22;73248;52.398;9.814;2024-02-15T08:40:01;13.10;99.90
30534;DHT22;73248;52.398;9.814;2024-02-15T08:42:27;13.20;99.90
30534;DHT22;73248;52.398;9.814;2024-02-15T08:44:52;13.20;99.90
30534;DHT22;73248;52.398;9.814;2024-02-15T08:47:18;13.20;99.90
30534;DHT22;73248;52.398;9.814;2024-02-15T08:49:43;13.20;99.90
30534;DHT22;73248;52.398;9.814;2024-02-15T08:52:09;13.30;99.90
30534;DHT22;73248;52.398;9.814;2024-02-15T08:54:36;13.30;99.90
30534;DHT22;73248;52.398;9.814;2024-02-15T08:57:04;13.30;99.90
30534;DHT22;73248;52.398;9.814;2024-02-15T08:59:30;13.40;99.90
30534;DHT22;73248;52.398;9.814;2024-02-15T09:01:56;13.40;99.90
30534;DHT22;73248;52.398;9.814;2024-02-15T09:04:22;13.40;99.90
30534;DHT22;73248;52.398;9.814;2024-02-15T09:06:50;13.50;99.90
30534;DHT22;73248;52.398;9.814;2024-02-15T09:09:16;13.50;99.90
30534;DHT22;73248;52.398;9.814;2024-02-15T09:11:42;13.50;99.90
30534;DHT22;73248;52.398;9.814;2024-02-15T09:14:07;13.50;99.90
30534;DHT22;73248;52.398;9.814;2024-02-15T09:16:35;13.60;99.90
30534;DHT22;73248;52.398;9.814;2024-02-15T09:19:01;13.60;99.90
30534;DHT22;73248;52.398;9.814;2024-02-15T09:21:27;13.60;99.90
30534;DHT22;73248;52.398;9.814;2024-02-15T09:23:56;13.60;99.90
30534;DHT22;73248;52.398;9.814;2024-02-15T09:26:21;13.60;99.90
30534;DHT22;73248;52.398;9.814;2024-02-15T09:28:47;13.60;99.90
30534;DHT22;73248;52.398;9.814;2024-02-15T09:31:13;13.60;99.90
30534;DHT22;73248;52.398;9.814;2024-02-15T09:33:41;13.60;99.90
30534;DHT22;73248;52.398;9.814;2024-02-15T09:36:07;13.70;99.90
30534;DHT22;73248;52.398;9.814;2024-02-15T09:38:33;13.80;99.90
30534;DHT22;73248;52.398;9.814;2024-02-15T09:40:59;13.80;99.90
30534;DHT22;73248;52.398;9.814;2024-02-15T09:43:25;13.80;99.90
30534;DHT22;73248;52.398;9.814;2024-02-15T09:45:54;13.90;99.90
30534;DHT22;73248;52.398;9.814;2024-02-15T09:48:23;13.90;99.90
30534;DHT22;73248;52.398;9.814;2024-02-15T09:50:52;13.90;99.90
30534;DHT22;73248;52.398;9.814;2024-02-15T09:53:21;13.90;99.90
30534;DHT22;73248;52.398;9.814;2024-02-15T09:55:47;13.90;99.90
30534;DHT22;73248;52.398;9.814;2024-02-15T09:58:14;13.90;99.90
30534;DHT22;73248;52.398;9.814;2024-02-15T10:00:40;13.90;99.90
30534;DHT22;73248;52.398;9.814;2024-02-15T10:03:06;13.80;99.90
30534;DHT22;73248;52.398;9.814;2024-02-15T10:05:35;13.90;99.90
30534;DHT22;73248;52.398;9.814;2024-02-15T10:08:00;13.80;99.90
30534;DHT22;73248;52.398;9.814;2024-02-15T10:10:28;13.80;99.90
30534;DHT22;73248;52.398;9.814;2024-02-15T10:12:54;13.80;99.90
30534;DHT22;73248;52.398;9.814;2024-02-15T10:15:36;13.80;99.90
30534;DHT22;73248;52.398;9.814;2024-02-15T10:18:12;13.80;99.90
30534;DHT22;73248;52.398;9.814;2024-02-15T10:20:39;13.80;99.90
30534;DHT22;73248;52.398;9.814;2024-02-15T10:25:34;13.80;99.90
30534;DHT22;73248;52.398;9.814;2024-02-15T10:28:06;13.80;99.90
30534;DHT22;73248;52.398;9.814;2024-02-15T10:30:34;13.80;99.90
30534;DHT22;73248;52.398;9.814;2024-02-15T10:33:01;13.80;99.90
30534;DHT22;73248;52.398;9.814;2024-02-15T10:35:27;13.70;99.90
30534;DHT22;73248;52.398;9.814;2024-02-15T10:38:14;13.70;99.90
30534;DHT22;73248;52.398;9.814;2024-02-15T10:40:41;13.80;99.90
30534;DHT22;73248;52.398;9.814;2024-02-15T10:43:08;13.80;99.90
30534;DHT22;73248;52.398;9.814;2024-02-15T10:45:36;13.70;99.90
30534;DHT22;73248;52.398;9.814;2024-02-15T10:48:05;13.70;99.90
30534;DHT22;73248;52.398;9.814;2024-02-15T10:50:30;13.70;99.90
30534;DHT22;73248;52.398;9.814;2024-02-15T10:52:59;13.60;99.90
30534;DHT22;73248;52.398;9.814;2024-02-15T10:55:48;13.60;99.90
30534;DHT22;73248;52.398;9.814;2024-02-15T10:58:19;13.70;99.90
30534;DHT22;73248;52.398;9.814;2024-02-15T11:00:50;13.60;99.90
30534;DHT22;73248;52.398;9.814;2024-02-15T11:03:22;13.60;99.90
30534;DHT22;73248;52.398;9.814;2024-02-15T11:05:51;13.60;99.90
30534;DHT22;73248;52.398;9.814;2024-02-15T11:08:17;13.60;99.90
30534;DHT22;73248;52.398;9.814;2024-02-15T11:10:44;13.60;99.90
30534;DHT22;73248;52.398;9.814;2024-02-15T11:13:10;13.60;99.90
30534;DHT22;73248;52.398;9.814;2024-02-15T11:18:05;13.60;99.90
30534;DHT22;73248;52.398;9.814;2024-02-15T11:23:00;13.60;99.90
30534;DHT22;73248;52.398;9.814;2024-02-15T11:25:38;13.60;99.90
30534;DHT22;73248;52.398;9.814;2024-02-15T11:30:51;13.60;99.90
30534;DHT22;73248;52.398;9.814;2024-02-15T11:33:30;13.60;99.90
30534;DHT22;73248;52.398;9.814;2024-02-15T11:36:07;13.60;99.90
30534;DHT22;73248;52.398;9.814;2024-02-15T11:38:37;13.60;99.90
30534;DHT22;73248;52.398;9.814;2024-02-15T11:41:07;13.60;99.90
30534;DHT22;73248;52.398;9.814;2024-02-15T11:46:16;13.70;99.90
30534;DHT22;73248;52.398;9.814;2024-02-15T11:48:48;13.70;99.90
30534;DHT22;73248;52.398;9.814;2024-02-15T11:51:34;13.70;99.90
30534;DHT22;73248;52.398;9.814;2024-02-15T11:54:09;13.70;99.90
30534;DHT22;73248;52.398;9.814;2024-02-15T11:59:12;13.80;99.90
30534;DHT22;73248;52.398;9.814;2024-02-15T12:01:44;13.80;99.90
30534;DHT22;73248;52.398;9.814;2024-02-15T12:04:29;13.80;99.90
30534;DHT22;73248;52.398;9.814;2024-02-15T12:07:15;13.70;99.90
30534;DHT22;73248;52.398;9.814;2024-02-15T12:09:59;13.80;99.90
30534;DHT22;73248;52.398;9.814;2024-02-15T12:12:51;13.70;99.90
30534;DHT22;73248;52.398;9.814;2024-02-15T12:15:35;13.80;99.90
30534;DHT22;73248;52.398;9.814;2024-02-15T12:18:19;13.80;99.90
30534;DHT22;73248;52.398;9.814;2024-02-15T12:21:05;13.80;99.90
30534;DHT22;73248;52.398;9.814;2024-02-15T12:23:32;13.90;99.90
30534;DHT22;73248;52.398;9.814;2024-02-15T12:26:00;13.90;99.90
30534;DHT22;73248;52.398;9.814;2024-02-15T12:28:25;13.90;99.90
30534;DHT22;73248;52.398;9.814;2024-02-15T12:30:57;13.80;99.90
30534;DHT22;73248;52.398;9.814;2024-02-15T12:33:23;13.80;99.90
30534;DHT22;73248;52.398;9.814;2024-02-15T12:35:49;13.90;99.90
30534;DHT22;73248;52.398;9.814;2024-02-15T12:38:18;14.00;99.90
30534;DHT22;73248;52.398;9.814;2024-02-15T12:40:44;13.90;99.90
30534;DHT22;73248;52.398;9.814;2024-02-15T12:43:10;13.90;99.90
30534;DHT22;73248;52.398;9.814;2024-02-15T12:45:39;13.90;99.90
30534;DHT22;73248;52.398;9.814;2024-02-15T12:48:07;13.90;99.90
30534;DHT22;73248;52.398;9.814;2024-02-15T12:50:34;13.90;99.90
30534;DHT22;73248;52.398;9.814;2024-02-15T12:53:00;13.90;99.90
30534;DHT22;73248;52.398;9.814;2024-02-15T12:55:29;14.00;99.90
30534;DHT22;73248;52.398;9.814;2024-02-15T12:58:03;14.00;99.90
30534;DHT22;73248;52.398;9.814;2024-02-15T13:00:34;14.00;99.90
30534;DHT22;73248;52.398;9.814;2024-02-15T13:03:02;14.00;99.90
30534;DHT22;73248;52.398;9.814;2024-02-15T13:05:29;14.00;99.90
30534;DHT22;73248;52.398;9.814;2024-02-15T13:07:57;14.00;99.90
30534;DHT22;73248;52.398;9.814;2024-02-15T13:10:29;14.00;99.90
30534;DHT22;73248;52.398;9.814;2024-02-15T13:12:55;14.00;99.90
30534;DHT22;73248;52.398;9.814;2024-02-15T13:15:23;14.10;99.90
30534;DHT22;73248;52.398;9.814;2024-02-15T13:17:53;14.10;99.90
30534;DHT22;73248;52.398;9.814;2024-02-15T13:20:20;14.00;99.90
30534;DHT22;73248;52.398;9.814;2024-02-15T13:22:53;14.10;99.90
30534;DHT22;73248;52.398;9.814;2024-02-15T13:25:19;14.10;99.90
30534;DHT22;73248;52.398;9.814;2024-02-15T13:27:46;14.10;99.90
30534;DHT22;73248;52.398;9.814;2024-02-15T13:30:12;14.10;99.90
30534;DHT22;73248;52.398;9.814;2024-02-15T13:32:39;14.10;99.90
30534;DHT22;73248;52.398;9.814;2024-02-15T13:35:08;14.10;99.90
30534;DHT22;73248;52.398;9.814;2024-02-15T13:37:49;14.20;99.90
30534;DHT22;73248;52.398;9.814;2024-02-15T13:40:15;14.20;99.90
30534;DHT22;73248;52.398;9.814;2024-02-15T13:42:45;14.30;99.90
30534;DHT22;73248;52.398;9.814;2024-02-15T13:45:28;14.40;99.90
30534;DHT22;73248;52.398;9.814;2024-02-15T13:47:59;14.50;99.90
30534;DHT22;73248;52.398;9.814;2024-02-15T13:50:28;14.60;99.90
30534;DHT22;73248;52.398;9.814;2024-02-15T13:52:55;14.70;99.90
30534;DHT22;73248;52.398;9.814;2024-02-15T13:55:20;14.80;99.90
30534;DHT22;73248;52.398;9.814;2024-02-15T13:57:47;14.80;99.90
30534;DHT22;73248;52.398;9.814;2024-02-15T14:00:16;14.90;99.90
30534;DHT22;73248;52.398;9.814;2024-02-15T14:02:56;14.90;99.90
30534;DHT22;73248;52.398;9.814;2024-02-15T14:05:24;14.90;99.90
30534;DHT22;73248;52.398;9.814;2024-02-15T14:07:54;14.80;99.90
30534;DHT22;73248;52.398;9.814;2024-02-15T14:10:21;14.90;99.90
30534;DHT22;73248;52.398;9.814;2024-02-15T14:12:52;14.90;99.90
30534;DHT22;73248;52.398;9.814;2024-02-15T14:15:18;14.90;99.90
30534;DHT22;73248;52.398;9.814;2024-02-15T14:17:45;15.00;99.90
30534;DHT22;73248;52.398;9.814;2024-02-15T14:20:12;15.00;99.90
30534;DHT22;73248;52.398;9.814;2024-02-15T14:22:46;15.10;99.90
30534;DHT22;73248;52.398;9.814;2024-02-15T14:25:17;15.10;99.90
30534;DHT22;73248;52.398;9.814;2024-02-15T14:27:43;15.20;99.90
30534;DHT22;73248;52.398;9.814;2024-02-15T14:30:09;15.20;99.90
30534;DHT22;73248;52.398;9.814;2024-02-15T14:32:53;15.20;99.90
30534;DHT22;73248;52.398;9.814;2024-02-15T14:35:33;15.20;99.90
30534;DHT22;73248;52.398;9.814;2024-02-15T14:38:03;15.20;99.90
30534;DHT22;73248;52.398;9.814;2024-02-15T14:40:38;15.20;99.90
30534;DHT22;73248;52.398;9.814;2024-02-15T14:43:05;15.20;99.90
30534;DHT22;73248;52.398;9.814;2024-02-15T14:45:34;15.10;99.90
30534;DHT22;73248;52.398;9.814;2024-02-15T14:48:03;15.10;99.90
30534;DHT22;73248;52.398;9.814;2024-02-15T14:50:29;15.10;99.90
30534;DHT22;73248;52.398;9.814;2024-02-15T14:52:56;15.00;99.90
30534;DHT22;73248;52.398;9.814;2024-02-15T14:55:21;15.00;99.90
30534;DHT22;73248;52.398;9.814;2024-02-15T14:57:48;14.90;99.90
30534;DHT22;73248;52.398;9.814;2024-02-15T15:00:14;14.90;99.90
30534;DHT22;73248;52.398;9.814;2024-02-15T15:02:45;14.80;99.90
30534;DHT22;73248;52.398;9.814;2024-02-15T15:05:14;14.80;99.90
30534;DHT22;73248;52.398;9.814;2024-02-15T15:07:58;14.70;99.90
30534;DHT22;73248;52.398;9.814;2024-02-15T15:10:45;14.70;99.90
30534;DHT22;73248;52.398;9.814;2024-02-15T15:13:30;14.60;99.90
30534;DHT22;73248;52.398;9.814;2024-02-15T15:15:57;14.60;99.90
30534;DHT22;73248;52.398;9.814;2024-02-15T15:18:22;14.60;99.90
30534;DHT22;73248;52.398;9.814;2024-02-15T15:20:48;14.50;99.90
30534;DHT22;73248;52.398;9.814;2024-02-15T15:23:13;14.50;99.90
30534;DHT22;73248;52.398;9.814;2024-02-15T15:25:41;14.50;99.90
30534;DHT22;73248;52.398;9.814;2024-02-15T15:28:07;14.50;99.90
30534;DHT22;73248;52.398;9.814;2024-02-15T15:30:33;14.40;99.90
30534;DHT22;73248;52.398;9.814;2024-02-15T15:32:58;14.40;99.90
30534;DHT22;73248;52.398;9.814;2024-02-15T15:35:26;14.40;99.90
30534;DHT22;73248;52.398;9.814;2024-02-15T15:37:52;14.30;99.90
30534;DHT22;73248;52.398;9.814;2024-02-15T15:40:18;14.30;99.90
30534;DHT22;73248;52.398;9.814;2024-02-15T15:42:44;14.30;99.90
30534;DHT22;73248;52.398;9.814;2024-02-15T15:45:10;14.30;99.90
30534;DHT22;73248;52.398;9.814;2024-02-15T15:47:37;14.30;99.90
30534;DHT22;73248;52.398;9.814;2024-02-15T15:50:04;14.30;99.90
30534;DHT22;73248;52.398;9.814;2024-02-15T15:52:32;14.20;99.90
30534;DHT22;73248;52.398;9.814;2024-02-15T15:54:58;14.20;99.90